createdAt,value
2018-02-13T00:00:49.910Z,-1.30
2018-02-13T00:03:18.518Z,-1.40
2018-02-13T00:05:46.490Z,-1.40
2018-02-13T00:08:16.463Z,-1.40
2018-02-13T00:10:44.458Z,-1.30
2018-02-13T00:13:13.137Z,-1.30
2018-02-13T00:15:41.172Z,-1.30
2018-02-13T00:18:09.102Z,-1.30
2018-02-13T00:20:36.993Z,-1.30
2018-02-13T00:23:04.935Z,-1.30
2018-02-13T00:25:32.930Z,-1.20
2018-02-13T00:28:01.058Z,-1.20
2018-02-13T00:30:29.691Z,-1.40
2018-02-13T00:32:57.533Z,-1.40
2018-02-13T00:35:25.510Z,-1.30
2018-02-13T00:37:54.166Z,-1.30
2018-02-13T00:40:22.843Z,-1.40
2018-02-13T00:42:50.770Z,-1.40
2018-02-13T00:45:18.766Z,-1.30
2018-02-13T00:47:46.650Z,-1.40
2018-02-13T00:50:14.715Z,-1.30
2018-02-13T00:52:42.727Z,-1.30
2018-02-13T00:55:10.651Z,-1.30
2018-02-13T00:57:39.309Z,-1.30
2018-02-13T01:00:07.239Z,-1.30
2018-02-13T01:02:35.089Z,-1.30
2018-02-13T01:05:03.172Z,-1.30
2018-02-13T01:07:31.271Z,-1.30
2018-02-13T01:09:59.213Z,-1.30
2018-02-13T01:12:27.927Z,-1.20
2018-02-13T01:14:55.858Z,-1.20
2018-02-13T01:17:23.744Z,-1.20
2018-02-13T01:19:51.834Z,-1.30
2018-02-13T01:22:19.698Z,-1.30
2018-02-13T01:24:47.592Z,-1.30
2018-02-13T01:27:15.466Z,-1.30
2018-02-13T01:29:43.350Z,-1.30
2018-02-13T01:32:11.252Z,-1.30
2018-02-13T01:34:39.167Z,-1.30
2018-02-13T01:37:07.803Z,-1.30
2018-02-13T01:39:35.991Z,-1.30
2018-02-13T01:42:04.084Z,-1.30
2018-02-13T01:44:32.067Z,-1.30
2018-02-13T01:47:00.635Z,-1.30
2018-02-13T01:49:28.486Z,-1.30
2018-02-13T01:51:56.429Z,-1.30
2018-02-13T01:54:24.316Z,-1.30
2018-02-13T01:56:52.524Z,-1.30
2018-02-13T01:59:20.388Z,-1.30
2018-02-13T02:01:48.325Z,-1.40
2018-02-13T02:04:16.204Z,-1.40
2018-02-13T02:06:44.055Z,-1.40
2018-02-13T02:09:12.207Z,-1.40
2018-02-13T02:11:40.046Z,-1.40
2018-02-13T02:14:07.894Z,-1.30
2018-02-13T02:16:36.540Z,-1.40
2018-02-13T02:19:04.414Z,-1.40
2018-02-13T02:21:32.475Z,-1.30
2018-02-13T02:24:00.479Z,-1.30
2018-02-13T02:26:29.102Z,-1.20
2018-02-13T02:28:56.984Z,-1.20
2018-02-13T02:31:24.854Z,-1.20
2018-02-13T02:33:53.658Z,-1.20
2018-02-13T02:36:21.642Z,-1.20
2018-02-13T02:38:49.538Z,-1.20
2018-02-13T02:41:18.251Z,-1.20
2018-02-13T02:43:46.111Z,-1.20
2018-02-13T02:46:13.972Z,-1.30
2018-02-13T02:48:41.898Z,-1.20
2018-02-13T02:51:09.748Z,-1.20
2018-02-13T02:53:37.666Z,-1.20
2018-02-13T02:56:05.501Z,-1.20
2018-02-13T02:58:34.117Z,-1.20
2018-02-13T03:01:02.034Z,-1.20
2018-02-13T03:03:29.913Z,-1.20
2018-02-13T03:05:58.601Z,-1.20
2018-02-13T03:08:26.486Z,-1.20
2018-02-13T03:10:55.178Z,-1.10
2018-02-13T03:13:23.042Z,-1.20
2018-02-13T03:15:51.697Z,-1.10
2018-02-13T03:18:19.610Z,-1.10
2018-02-13T03:20:47.580Z,-1.00
2018-02-13T03:23:15.504Z,-1.00
2018-02-13T03:25:43.409Z,-1.00
2018-02-13T03:28:11.650Z,-1.00
2018-02-13T03:30:39.523Z,-1.00
2018-02-13T03:33:07.419Z,-1.00
2018-02-13T03:35:35.357Z,-0.90
2018-02-13T03:38:04.070Z,-0.90
2018-02-13T03:40:32.038Z,-0.90
2018-02-13T03:42:59.926Z,-0.90
2018-02-13T03:45:27.820Z,-0.90
2018-02-13T03:47:55.823Z,-0.90
2018-02-13T03:50:24.550Z,-1.00
2018-02-13T03:52:54.628Z,-1.00
2018-02-13T03:55:22.762Z,-1.00
2018-02-13T03:57:50.634Z,-1.00
2018-02-13T04:00:26.923Z,-1.00
2018-02-13T04:02:54.761Z,-1.00
2018-02-13T04:05:22.835Z,-1.00
2018-02-13T04:07:50.819Z,-1.00
2018-02-13T04:10:18.654Z,-1.00
2018-02-13T04:12:48.468Z,-1.00
2018-02-13T04:15:16.477Z,-1.00
2018-02-13T04:17:44.432Z,-1.00
2018-02-13T04:20:12.310Z,-1.00
2018-02-13T04:22:41.108Z,-1.00
2018-02-13T04:25:09.710Z,-1.00
2018-02-13T04:27:37.949Z,-1.00
2018-02-13T04:30:06.848Z,-0.90
2018-02-13T04:32:35.536Z,-1.00
2018-02-13T04:35:04.336Z,-0.90
2018-02-13T04:37:33.007Z,-0.90
2018-02-13T04:40:01.744Z,-1.00
2018-02-13T04:42:30.505Z,-1.00
2018-02-13T04:44:58.421Z,-1.00
2018-02-13T04:47:26.360Z,-1.00
2018-02-13T04:49:54.206Z,-1.10
2018-02-13T04:52:22.350Z,-1.10
2018-02-13T04:54:51.084Z,-1.00
2018-02-13T04:57:19.172Z,-1.00
2018-02-13T04:59:47.082Z,-1.00
2018-02-13T05:02:15.658Z,-1.00
2018-02-13T05:04:44.262Z,-0.90
2018-02-13T05:07:12.334Z,-1.00
2018-02-13T05:09:40.309Z,-1.00
2018-02-13T05:12:08.196Z,-0.90
2018-02-13T05:14:36.086Z,-0.90
2018-02-13T05:17:04.057Z,-0.90
2018-02-13T05:19:31.947Z,-1.00
2018-02-13T05:22:00.890Z,-0.90
2018-02-13T05:24:28.779Z,-0.90
2018-02-13T05:26:56.724Z,-1.00
2018-02-13T05:29:24.640Z,-0.90
2018-02-13T05:31:52.575Z,-0.90
2018-02-13T05:34:20.541Z,-0.90
2018-02-13T05:36:48.470Z,-0.90
2018-02-13T05:39:16.321Z,-0.90
2018-02-13T05:41:44.242Z,-0.90
2018-02-13T05:44:12.331Z,-0.90
2018-02-13T05:46:40.543Z,-0.90
2018-02-13T05:49:08.543Z,-1.00
2018-02-13T05:51:36.452Z,-1.00
2018-02-13T05:54:05.057Z,-1.00
2018-02-13T05:56:32.989Z,-1.00
2018-02-13T05:59:00.962Z,-1.00
2018-02-13T06:01:28.824Z,-1.00
2018-02-13T06:03:56.783Z,-1.00
2018-02-13T06:06:24.701Z,-1.00
2018-02-13T06:08:52.590Z,-1.00
2018-02-13T06:11:20.533Z,-1.00
2018-02-13T06:13:48.606Z,-1.00
2018-02-13T06:16:16.449Z,-1.00
2018-02-13T06:18:45.306Z,-0.80
2018-02-13T06:21:13.224Z,-0.90
2018-02-13T06:23:41.207Z,-0.90
2018-02-13T06:26:09.123Z,-0.90
2018-02-13T06:28:37.029Z,-0.90
2018-02-13T06:31:04.997Z,-0.90
2018-02-13T06:33:33.118Z,-0.90
2018-02-13T06:36:01.177Z,-0.90
2018-02-13T06:38:29.845Z,-0.90
2018-02-13T06:40:57.753Z,-0.90
2018-02-13T06:43:25.624Z,-0.90
2018-02-13T06:45:53.535Z,-0.80
2018-02-13T06:48:21.787Z,-1.00
2018-02-13T06:50:49.758Z,-1.00
2018-02-13T06:53:19.577Z,-1.00
2018-02-13T06:55:47.766Z,-1.00
2018-02-13T06:58:15.774Z,-0.90
2018-02-13T07:00:43.676Z,-1.00
2018-02-13T07:03:13.752Z,-1.00
2018-02-13T07:05:43.838Z,-1.00
2018-02-13T07:08:11.894Z,-1.10
2018-02-13T07:10:40.453Z,-1.10
2018-02-13T07:13:09.273Z,-1.10
2018-02-13T07:15:38.045Z,-1.00
2018-02-13T07:18:06.785Z,-0.90
2018-02-13T07:20:35.795Z,-0.90
2018-02-13T07:23:03.747Z,-0.90
2018-02-13T07:25:32.022Z,-0.90
2018-02-13T07:28:00.852Z,-1.00
2018-02-13T07:30:29.626Z,-1.00
2018-02-13T07:32:58.327Z,-0.90
2018-02-13T07:35:26.333Z,-0.90
2018-02-13T07:37:54.472Z,-1.00
2018-02-13T07:40:23.255Z,-0.90
2018-02-13T07:42:52.166Z,-0.80
2018-02-13T07:45:20.233Z,-0.80
2018-02-13T07:47:49.147Z,-0.80
2018-02-13T07:50:17.352Z,-0.80
2018-02-13T07:52:45.331Z,-0.80
2018-02-13T07:55:13.275Z,-0.70
2018-02-13T07:57:41.429Z,-0.70
2018-02-13T08:00:09.315Z,0.60
2018-02-13T08:02:37.272Z,2.20
2018-02-13T08:05:05.336Z,3.60
2018-02-13T08:07:33.225Z,4.60
2018-02-13T08:10:01.177Z,5.10
2018-02-13T08:12:29.701Z,4.90
2018-02-13T08:14:58.457Z,5.60
2018-02-13T08:17:27.124Z,5.50
2018-02-13T08:19:55.006Z,5.40
2018-02-13T08:22:23.858Z,4.60
2018-02-13T08:24:51.831Z,4.60
2018-02-13T08:27:19.850Z,4.10
2018-02-13T08:29:48.074Z,4.60
2018-02-13T08:32:15.990Z,4.60
2018-02-13T08:34:44.155Z,5.80
2018-02-13T08:37:12.289Z,6.70
2018-02-13T08:39:40.207Z,5.90
2018-02-13T08:42:08.173Z,5.90
2018-02-13T08:44:35.998Z,5.50
2018-02-13T08:47:04.026Z,4.70
2018-02-13T08:49:32.577Z,4.90
2018-02-13T08:52:00.741Z,3.10
2018-02-13T08:54:28.731Z,2.30
2018-02-13T08:56:56.641Z,1.70
2018-02-13T08:59:24.762Z,0.80
2018-02-13T09:01:52.778Z,0.70
2018-02-13T09:04:20.891Z,0.70
2018-02-13T09:06:48.946Z,0.70
2018-02-13T09:09:17.074Z,0.70
2018-02-13T09:11:45.893Z,1.00
2018-02-13T09:14:13.916Z,1.00
2018-02-13T09:16:42.366Z,1.10
2018-02-13T09:19:10.484Z,1.10
2018-02-13T09:21:38.464Z,1.20
2018-02-13T09:24:06.672Z,1.10
2018-02-13T09:26:34.726Z,1.30
2018-02-13T09:29:02.916Z,1.20
2018-02-13T09:31:31.270Z,1.00
2018-02-13T09:33:59.483Z,1.20
2018-02-13T09:36:27.403Z,1.20
2018-02-13T09:38:55.863Z,1.40
2018-02-13T09:41:24.482Z,1.60
2018-02-13T09:43:53.404Z,1.50
2018-02-13T09:46:21.517Z,1.50
2018-02-13T09:48:49.448Z,1.60
2018-02-13T09:51:17.398Z,1.60
2018-02-13T09:53:45.360Z,1.80
2018-02-13T09:56:13.585Z,1.90
2018-02-13T09:58:41.745Z,1.80
2018-02-13T10:01:09.641Z,1.80
2018-02-13T10:03:37.526Z,1.70
2018-02-13T10:06:05.635Z,1.80
2018-02-13T10:08:33.702Z,2.00
2018-02-13T10:11:01.794Z,2.10
2018-02-13T10:13:29.829Z,2.00
2018-02-13T10:15:58.455Z,1.90
2018-02-13T10:18:27.279Z,1.80
2018-02-13T10:20:55.406Z,1.70
2018-02-13T10:23:23.443Z,2.00
2018-02-13T10:25:51.489Z,2.20
2018-02-13T10:28:19.441Z,2.30
2018-02-13T10:30:48.227Z,2.50
2018-02-13T10:33:17.060Z,2.60
2018-02-13T10:35:45.003Z,2.70
2018-02-13T10:38:12.872Z,2.70
2018-02-13T10:40:40.954Z,2.60
2018-02-13T10:43:08.832Z,2.30
2018-02-13T10:45:36.747Z,2.30
2018-02-13T10:48:05.484Z,2.60
2018-02-13T10:50:33.362Z,2.60
2018-02-13T10:53:01.528Z,2.50
2018-02-13T10:55:29.540Z,2.60
2018-02-13T10:57:58.586Z,2.80
2018-02-13T11:00:31.170Z,2.80
2018-02-13T11:02:59.851Z,3.10
2018-02-13T11:05:27.766Z,3.10
2018-02-13T11:07:56.488Z,3.10
2018-02-13T11:10:24.430Z,3.10
2018-02-13T11:12:53.079Z,3.00
2018-02-13T11:15:21.190Z,3.00
2018-02-13T11:17:49.818Z,3.10
2018-02-13T11:20:17.826Z,3.10
2018-02-13T11:22:45.848Z,3.10
2018-02-13T11:25:13.743Z,3.30
2018-02-13T11:27:41.919Z,3.40
2018-02-13T11:30:09.841Z,3.20
2018-02-13T11:32:37.870Z,3.20
2018-02-13T11:35:06.638Z,3.40
2018-02-13T11:37:34.808Z,3.30
2018-02-13T11:40:03.740Z,3.60
2018-02-13T11:42:31.949Z,3.50
2018-02-13T11:45:00.254Z,3.60
2018-02-13T11:47:28.303Z,3.70
2018-02-13T11:49:56.245Z,3.80
2018-02-13T11:52:24.312Z,3.90
2018-02-13T11:54:52.494Z,3.70
2018-02-13T11:57:21.615Z,4.00
2018-02-13T11:59:50.462Z,4.00
2018-02-13T12:02:19.167Z,4.30
2018-02-13T12:04:48.126Z,4.20
2018-02-13T12:07:16.950Z,4.10
2018-02-13T12:09:44.836Z,4.00
2018-02-13T12:12:13.123Z,4.00
2018-02-13T12:14:41.108Z,3.90
2018-02-13T12:17:09.162Z,3.60
2018-02-13T12:19:37.352Z,3.70
2018-02-13T12:22:06.072Z,4.00
2018-02-13T12:24:33.982Z,3.90
2018-02-13T12:27:02.362Z,3.80
2018-02-13T12:29:30.385Z,3.40
2018-02-13T12:31:59.231Z,3.50
2018-02-13T12:34:27.156Z,3.50
2018-02-13T12:36:55.079Z,3.90
2018-02-13T12:39:23.014Z,3.80
2018-02-13T12:41:51.140Z,3.90
2018-02-13T12:44:19.372Z,3.90
2018-02-13T12:46:48.161Z,3.80
2018-02-13T12:49:16.175Z,3.80
2018-02-13T12:51:46.520Z,3.40
2018-02-13T12:54:14.568Z,3.40
2018-02-13T12:56:43.427Z,3.50
2018-02-13T12:59:11.485Z,3.50
2018-02-13T13:01:40.341Z,3.80
2018-02-13T13:04:08.395Z,3.70
2018-02-13T13:06:36.421Z,3.80
2018-02-13T13:09:04.921Z,3.70
2018-02-13T13:11:33.820Z,4.00
2018-02-13T13:14:02.897Z,4.10
2018-02-13T13:16:31.144Z,4.10
2018-02-13T13:18:59.078Z,4.00
2018-02-13T13:21:27.100Z,3.90
2018-02-13T13:23:55.070Z,3.80
2018-02-13T13:26:24.017Z,3.70
2018-02-13T13:28:54.100Z,3.70
2018-02-13T13:31:23.661Z,4.00
2018-02-13T13:33:51.818Z,4.00
2018-02-13T13:36:20.587Z,3.60
2018-02-13T13:38:48.815Z,3.50
2018-02-13T13:41:17.062Z,3.60
2018-02-13T13:43:45.561Z,3.70
2018-02-13T13:46:13.914Z,3.70
2018-02-13T13:48:42.257Z,3.80
2018-02-13T13:51:10.696Z,3.80
2018-02-13T13:53:38.674Z,3.80
2018-02-13T13:56:07.421Z,3.60
2018-02-13T13:58:36.490Z,3.50
2018-02-13T14:04:04.983Z,3.40
2018-02-13T14:06:34.278Z,3.20
2018-02-13T14:09:03.724Z,3.30
2018-02-13T14:11:32.330Z,3.30
2018-02-13T14:14:00.621Z,3.30
2018-02-13T14:16:28.817Z,3.20
2018-02-13T14:18:57.982Z,3.50
2018-02-13T14:21:26.289Z,3.50
2018-02-13T14:23:55.537Z,3.30
2018-02-13T14:26:23.728Z,3.30
2018-02-13T14:28:53.262Z,3.30
2018-02-13T14:31:22.369Z,3.30
2018-02-13T14:33:51.451Z,3.10
2018-02-13T14:36:19.585Z,3.10
2018-02-13T14:38:47.777Z,3.20
2018-02-13T14:41:16.067Z,3.20
2018-02-13T14:43:44.997Z,3.30
2018-02-13T14:46:13.233Z,3.30
2018-02-13T14:48:42.188Z,3.30
2018-02-13T14:51:10.764Z,3.30
2018-02-13T14:53:38.843Z,3.30
2018-02-13T14:56:07.290Z,3.30
2018-02-13T14:58:35.569Z,3.10
2018-02-13T15:01:04.460Z,3.00
2018-02-13T15:03:32.782Z,3.00
2018-02-13T15:06:01.147Z,3.10
2018-02-13T15:08:30.467Z,2.90
2018-02-13T15:10:58.547Z,2.90
2018-02-13T15:13:27.504Z,2.80
2018-02-13T15:15:55.701Z,2.80
2018-02-13T15:18:24.232Z,2.70
2018-02-13T15:20:52.543Z,2.70
2018-02-13T15:23:20.831Z,2.80
2018-02-13T15:25:48.913Z,2.80
2018-02-13T15:28:16.987Z,2.70
2018-02-13T15:30:45.179Z,2.70
2018-02-13T15:33:14.538Z,2.60
2018-02-13T15:35:42.658Z,2.60
2018-02-13T15:38:10.895Z,2.50
2018-02-13T15:40:39.933Z,2.60
2018-02-13T15:43:08.257Z,2.50
2018-02-13T15:45:36.397Z,2.50
2018-02-13T15:48:04.749Z,2.50
2018-02-13T15:50:32.872Z,2.30
2018-02-13T15:53:01.201Z,2.30
2018-02-13T15:55:29.533Z,2.20
2018-02-13T15:57:58.531Z,2.40
2018-02-13T16:00:26.584Z,2.30
2018-02-13T16:02:54.683Z,2.30
2018-02-13T16:05:23.099Z,2.30
2018-02-13T16:07:51.412Z,2.20
2018-02-13T16:10:19.528Z,2.20
2018-02-13T16:12:48.333Z,2.00
2018-02-13T16:15:16.365Z,2.00
2018-02-13T16:17:45.231Z,1.90
2018-02-13T16:20:13.967Z,1.90
2018-02-13T16:22:42.712Z,1.90
2018-02-13T16:25:10.893Z,1.90
2018-02-13T16:27:38.921Z,2.00
2018-02-13T16:30:07.029Z,1.90
2018-02-13T16:32:35.354Z,1.90
2018-02-13T16:35:03.700Z,1.80
2018-02-13T16:37:31.987Z,1.80
2018-02-13T16:40:00.919Z,1.70
2018-02-13T16:42:29.398Z,1.70
2018-02-13T16:44:57.920Z,1.60
2018-02-13T16:47:26.691Z,1.40
2018-02-13T16:49:54.669Z,1.40
2018-02-13T16:52:22.812Z,1.30
2018-02-13T16:54:51.112Z,1.20
2018-02-13T16:57:19.185Z,1.20
2018-02-13T16:59:47.152Z,1.10
2018-02-13T17:02:15.250Z,1.00
2018-02-13T17:04:43.534Z,0.90
2018-02-13T17:07:11.696Z,0.80
2018-02-13T17:09:39.796Z,0.70
2018-02-13T17:12:09.715Z,0.70
2018-02-13T17:14:37.775Z,0.60
2018-02-13T17:17:06.089Z,0.60
2018-02-13T17:19:34.156Z,0.60
2018-02-13T17:22:02.430Z,0.60
2018-02-13T17:24:30.838Z,0.60
2018-02-13T17:26:59.020Z,0.50
2018-02-13T17:29:27.799Z,0.50
2018-02-13T17:31:56.082Z,0.50
2018-02-13T17:34:24.412Z,0.40
2018-02-13T17:36:52.634Z,0.50
2018-02-13T17:39:20.989Z,0.40
2018-02-13T17:41:49.382Z,0.40
2018-02-13T17:44:17.828Z,0.40
2018-02-13T17:46:46.130Z,0.40
2018-02-13T17:49:14.353Z,0.30
2018-02-13T17:51:42.396Z,0.30
2018-02-13T17:54:11.491Z,0.30
2018-02-13T17:56:39.683Z,0.30
2018-02-13T17:59:08.639Z,0.20
2018-02-13T18:01:36.746Z,0.10
2018-02-13T18:04:05.597Z,0.10
2018-02-13T18:06:33.654Z,0.10
2018-02-13T18:09:02.154Z,0.00
2018-02-13T18:11:30.488Z,0.00
2018-02-13T18:13:58.523Z,0.00
2018-02-13T18:16:26.598Z,-0.10
2018-02-13T18:18:56.582Z,-0.10
2018-02-13T18:21:25.062Z,-0.10
2018-02-13T18:23:54.221Z,-0.10
2018-02-13T18:26:22.883Z,-0.10
2018-02-13T18:28:51.787Z,-0.10
2018-02-13T18:31:20.613Z,-0.10
2018-02-13T18:33:49.138Z,-0.10
2018-02-13T18:36:17.498Z,-0.20
2018-02-13T18:38:46.176Z,-0.20
2018-02-13T18:41:14.490Z,-0.20
2018-02-13T18:43:42.876Z,-0.20
2018-02-13T18:46:10.973Z,-0.20
2018-02-13T18:48:39.311Z,-0.20
2018-02-13T18:51:08.372Z,-0.20
2018-02-13T18:53:36.713Z,-0.20
2018-02-13T18:56:04.762Z,-0.30
2018-02-13T18:58:33.117Z,-0.30
2018-02-13T19:01:01.480Z,-0.30
2018-02-13T19:03:29.760Z,-0.30
2018-02-13T19:05:57.774Z,-0.30
2018-02-13T19:08:26.077Z,-0.40
2018-02-13T19:10:54.581Z,-0.30
2018-02-13T19:13:23.051Z,-0.30
2018-02-13T19:15:51.257Z,-0.40
2018-02-13T19:18:20.247Z,-0.40
2018-02-13T19:20:48.684Z,-0.40
2018-02-13T19:23:16.903Z,-0.50
2018-02-13T19:25:46.111Z,-0.60
2018-02-13T19:28:14.818Z,-0.60
2018-02-13T19:30:43.239Z,-0.60
2018-02-13T19:33:11.451Z,-0.60
2018-02-13T19:35:39.521Z,-0.70
2018-02-13T19:38:09.215Z,-0.90
2018-02-13T19:40:38.327Z,-1.10
2018-02-13T19:43:07.294Z,-1.20
2018-02-13T19:45:35.840Z,-1.30
2018-02-13T19:48:04.034Z,-1.20
2018-02-13T19:50:32.175Z,-1.20
2018-02-13T19:53:01.656Z,-1.30
2018-02-13T19:55:32.072Z,-1.30
2018-02-13T19:58:00.992Z,-1.40
2018-02-13T20:00:29.542Z,-1.40
2018-02-13T20:02:58.044Z,-1.50
2018-02-13T20:05:26.996Z,-1.50
2018-02-13T20:07:56.127Z,-1.50
2018-02-13T20:10:25.451Z,-1.30
2018-02-13T20:12:54.232Z,-1.30
2018-02-13T20:15:23.636Z,-1.40
2018-02-13T20:17:59.000Z,-1.30
2018-02-13T20:20:27.916Z,-1.30
2018-02-13T20:22:57.199Z,-1.40
2018-02-13T20:25:26.134Z,-1.40
2018-02-13T20:27:55.371Z,-1.60
2018-02-13T20:30:23.404Z,-1.60
2018-02-13T20:32:52.696Z,-1.80
2018-02-13T20:35:34.397Z,-1.90
2018-02-13T20:38:04.306Z,-2.00
2018-02-13T20:40:33.582Z,-2.00
2018-02-13T20:43:01.576Z,-2.00
2018-02-13T20:45:30.252Z,-2.10
2018-02-13T20:48:00.170Z,-2.00
2018-02-13T20:50:30.233Z,-2.00
2018-02-13T20:52:58.268Z,-2.00
2018-02-13T20:55:26.955Z,-1.90
2018-02-13T20:57:55.171Z,-1.90
2018-02-13T21:00:30.956Z,-1.90
2018-02-13T21:03:03.203Z,-2.00
2018-02-13T21:05:37.412Z,-1.90
2018-02-13T21:08:07.595Z,-1.90
2018-02-13T21:10:35.590Z,-2.00
2018-02-13T21:13:59.284Z,-2.00
2018-02-13T21:16:41.433Z,-2.20
2018-02-13T21:19:19.762Z,-2.30
2018-02-13T21:21:49.111Z,-2.40
2018-02-13T21:24:17.876Z,-2.60
2018-02-13T21:26:55.006Z,-2.70
2018-02-13T21:29:45.783Z,-2.70
2018-02-13T21:32:18.518Z,-2.80
2018-02-13T21:34:59.696Z,-2.80
2018-02-13T21:37:30.747Z,-2.70
2018-02-13T21:39:59.463Z,-2.70
2018-02-13T21:42:28.273Z,-2.60
2018-02-13T21:44:57.167Z,-2.50
2018-02-13T21:47:26.373Z,-2.40
2018-02-13T21:49:54.376Z,-2.50
2018-02-13T21:52:22.391Z,-2.40
2018-02-13T21:54:55.123Z,-2.50
2018-02-13T21:57:23.706Z,-2.50
2018-02-13T21:59:51.736Z,-2.40
2018-02-13T22:02:23.976Z,-2.60
2018-02-13T22:04:55.121Z,-2.60
2018-02-13T22:07:25.540Z,-2.90
2018-02-13T22:09:58.488Z,-2.90
2018-02-13T22:12:31.512Z,-2.90
2018-02-13T22:15:13.929Z,-2.90
2018-02-13T22:17:49.905Z,-3.00
2018-02-13T22:20:24.410Z,-3.00
2018-02-13T22:23:09.778Z,-3.00
2018-02-13T22:25:37.991Z,-3.10
2018-02-13T22:28:05.924Z,-3.20
2018-02-13T22:30:34.644Z,-3.40
2018-02-13T22:33:02.675Z,-3.40
2018-02-13T22:35:31.395Z,-3.30
2018-02-13T22:37:59.429Z,-3.30
2018-02-13T22:40:28.294Z,-3.20
2018-02-13T22:42:56.329Z,-3.20
2018-02-13T22:45:24.463Z,-3.10
2018-02-13T22:47:52.400Z,-3.20
2018-02-13T22:50:20.344Z,-3.30
2018-02-13T22:52:48.300Z,-3.40
2018-02-13T22:55:17.093Z,-3.40
2018-02-13T22:57:45.100Z,-3.40
2018-02-13T23:00:13.343Z,-3.30
2018-02-13T23:02:41.516Z,-3.30
2018-02-13T23:05:09.664Z,-3.30
2018-02-13T23:07:38.655Z,-3.30
2018-02-13T23:10:07.352Z,-3.20
2018-02-13T23:12:36.091Z,-3.40
2018-02-13T23:15:04.342Z,-3.40
2018-02-13T23:17:32.545Z,-3.30
2018-02-13T23:20:00.610Z,-3.40
2018-02-13T23:22:28.663Z,-3.40
2018-02-13T23:24:56.778Z,-3.40
2018-02-13T23:27:24.948Z,-3.40
2018-02-13T23:29:53.148Z,-3.40
2018-02-13T23:32:21.253Z,-3.60
2018-02-13T23:34:49.207Z,-3.70
2018-02-13T23:37:17.327Z,-3.80
2018-02-13T23:39:45.423Z,-3.80
2018-02-13T23:42:14.373Z,-3.80
2018-02-13T23:44:42.434Z,-3.80
2018-02-13T23:47:10.620Z,-3.80
2018-02-13T23:49:39.529Z,-3.90
2018-02-13T23:52:07.704Z,-3.90
2018-02-13T23:54:36.317Z,-3.80
2018-02-13T23:57:04.426Z,-3.80
2018-02-13T23:59:32.704Z,-3.90
